Kenema Airport

Jump to: basic info | weather | comments

Related pages: nearby airports | nearby navaids | notams | map

Basic information (top)

Codes: KEN GFKE
Location: lon 7.891290, lat -11.176600, elev 485 ft / 148 m msl
Status: medium_airport
Scheduled airline service: yes
Links: Wikipedia Mobile

Weather (top)

Current conditions for Roberts International Airport 111nm (205km) SSE (rec'd 2015/02/28 22:00Z):

GLRB 282200Z 00000KT 9999 FEW013 24/23 Q1014 NOSIG

Airport forecast for Roberts International Airport 111nm (205km) SSE (rec'd 2015/02/28 06:51Z):

TAF TAF GLRB 280400Z 2806/0112 24010KT 9999 BKN018 
      BECMG 2806/2808 03005KT 2000 BR SCT009 
      TEMPO 2810/2814 22010KT 9999 BKN018

Latest comments (top)

No comments yet for Kenema Airport

More... (top)

See also NOTAMs and nearby airports and navaids, or visit the Kenema Airport page at the main OurAirports website..